Lady Maryland — WTV4008 — position and weather

sailwx.info

Track history (hours):
 
Tides and Currents Weather Stations Pressure Air Temp Water Temp Dewpoint Dewpoint Depression Visibility Wind Speed Wind Dir Waves Ship Positions

Lady Maryland

Owner: LIVING CLASSROOMS FOUNDATION, BALTIMORE, MD. More information available from US FCC via Universal Licensing System and Coast Guard Vessel Documentation Center.

Last reported at 2017-May-26 17:47 UTC. Time now 2017-May-28 08:23 UTC.
Position N 39°17' W 076°37'.

Length 32 m.

Type: Sailing vessel. MMSI: 367350650.

Date/timePositionNaut miles runAvg speedWind from/ knotsBaromVisibWave heightAir tempDewpointWater temp
2017-May-26 17:47N 39°17' W 076°37'1 3.3
2017-May-26 17:22N 39°16' W 076°35'0 0.1
2017-May-26 16:49N 39°16' W 076°35'1 4.2
2017-May-26 16:29N 39°17' W 076°37'0 0.2
2017-May-26 14:17N 39°17' W 076°36'1 0.0
2017-May-25 17:46N 39°17' W 076°35'1 4.5
2017-May-25 17:30N 39°15' W 076°35'1 1.2
2017-May-25 17:00N 39°15' W 076°35'1 1.7
2017-May-25 16:27N 39°16' W 076°34'0 0.5
2017-May-25 15:58N 39°16' W 076°34'1 1.3
2017-May-25 15:26N 39°16' W 076°34'1 1.3
2017-May-25 14:39N 39°17' W 076°36'0 0.0
2017-May-25 00:38N 39°17' W 076°36'0 0.3
2017-May-25 00:28N 39°17' W 076°36'1 2.2
2017-May-25 00:00N 39°16' W 076°35'0 0.2
2017-May-24 23:30N 39°16' W 076°34'1 0.2
2017-May-24 18:13N 39°17' W 076°36'0 0.4
2017-May-24 18:00N 39°17' W 076°36'1 1.4
2017-May-24 17:24N 39°16' W 076°35'1 2.3
2017-May-24 16:57N 39°15' W 076°35'0 1.0
2017-May-24 16:30N 39°15' W 076°35'0 0.4
2017-May-24 16:00N 39°16' W 076°36'1 2.0
2017-May-24 15:30N 39°15' W 076°34'1 1.8
2017-May-24 15:00N 39°16' W 076°35'1 0.1
2017-May-23 17:48N 39°17' W 076°36'1 0.8
2017-May-23 16:52N 39°16' W 076°35'1 2.5
2017-May-23 16:24N 39°15' W 076°34'0 0.6
2017-May-23 16:00N 39°16' W 076°35'0 0.3
2017-May-23 15:29N 39°16' W 076°35'0 1.0
2017-May-23 15:00N 39°16' W 076°35'1 1.4
2017-May-23 13:56N 39°17' W 076°36'0 0.8
2017-May-23 13:28N 39°17' W 076°36'0 0.0
2017-May-23 12:58N 39°17' W 076°36'  
2017-May-19 22:32N 39°16' W 076°35'0 5.5
2017-May-19 22:30N 39°16' W 076°35'0 0.6
2017-May-19 21:59N 39°16' W 076°35'0 0.0
2017-May-19 17:50N 39°16' W 076°34'3 2.6
2017-May-19 16:31N 39°14' W 076°32'0 5.3
2017-May-19 16:29N 39°13' W 076°32'0 0.5
2017-May-19 15:58N 39°14' W 076°32'1 1.9
2017-May-19 15:30N 39°13' W 076°31'3 5.3
2017-May-19 14:57N 39°15' W 076°34'3 0.1
2017-May-18 15:58N 39°17' W 076°37'2 2.2
2017-May-18 15:03N 39°16' W 076°34'0 1.5
2017-May-18 15:00N 39°16' W 076°34'0 0.3
2017-May-18 14:26N 39°16' W 076°35'0 0.0
2017-May-17 17:43N 39°16' W 076°34'3 4.0
2017-May-17 16:56N 39°14' W 076°31'0 0.2
2017-May-17 16:25N 39°14' W 076°31'2 1.6
2017-May-17 15:16N 39°15' W 076°33'1 3.5
2017-May-17 14:58N 39°16' W 076°34'  
Track history (hours):
 
Tides and Currents Weather Stations Pressure Air Temp Water Temp Dewpoint Dewpoint Depression Visibility Wind Speed Wind Dir Waves Ship Positions

Lady Maryland

Owner: LIVING CLASSROOMS FOUNDATION, BALTIMORE, MD. More information available from US FCC via Universal Licensing System and Coast Guard Vessel Documentation Center.

Last reported at 2017-May-26 17:47 UTC. Time now 2017-May-28 08:23 UTC.
Position N 39°17' W 076°37'.

Length 32 m.

Type: Sailing vessel. MMSI: 367350650.

Date/timePositionNaut miles runAvg speedWind from/ knotsBaromVisibWave heightAir tempDewpointWater temp
2017-May-26 17:47N 39°17' W 076°37'1 3.3
2017-May-26 17:22N 39°16' W 076°35'0 0.1
2017-May-26 16:49N 39°16' W 076°35'1 4.2
2017-May-26 16:29N 39°17' W 076°37'0 0.2
2017-May-26 14:17N 39°17' W 076°36'1 0.0
2017-May-25 17:46N 39°17' W 076°35'1 4.5
2017-May-25 17:30N 39°15' W 076°35'1 1.2
2017-May-25 17:00N 39°15' W 076°35'1 1.7
2017-May-25 16:27N 39°16' W 076°34'0 0.5
2017-May-25 15:58N 39°16' W 076°34'1 1.3
2017-May-25 15:26N 39°16' W 076°34'1 1.3
2017-May-25 14:39N 39°17' W 076°36'0 0.0
2017-May-25 00:38N 39°17' W 076°36'0 0.3
2017-May-25 00:28N 39°17' W 076°36'1 2.2
2017-May-25 00:00N 39°16' W 076°35'0 0.2
2017-May-24 23:30N 39°16' W 076°34'1 0.2
2017-May-24 18:13N 39°17' W 076°36'0 0.4
2017-May-24 18:00N 39°17' W 076°36'1 1.4
2017-May-24 17:24N 39°16' W 076°35'1 2.3
2017-May-24 16:57N 39°15' W 076°35'0 1.0
2017-May-24 16:30N 39°15' W 076°35'0 0.4
2017-May-24 16:00N 39°16' W 076°36'1 2.0
2017-May-24 15:30N 39°15' W 076°34'1 1.8
2017-May-24 15:00N 39°16' W 076°35'1 0.1
2017-May-23 17:48N 39°17' W 076°36'1 0.8
2017-May-23 16:52N 39°16' W 076°35'1 2.5
2017-May-23 16:24N 39°15' W 076°34'0 0.6
2017-May-23 16:00N 39°16' W 076°35'0 0.3
2017-May-23 15:29N 39°16' W 076°35'0 1.0
2017-May-23 15:00N 39°16' W 076°35'1 1.4
2017-May-23 13:56N 39°17' W 076°36'0 0.8
2017-May-23 13:28N 39°17' W 076°36'0 0.0
2017-May-23 12:58N 39°17' W 076°36'  
2017-May-19 22:32N 39°16' W 076°35'0 5.5
2017-May-19 22:30N 39°16' W 076°35'0 0.6
2017-May-19 21:59N 39°16' W 076°35'0 0.0
2017-May-19 17:50N 39°16' W 076°34'3 2.6
2017-May-19 16:31N 39°14' W 076°32'0 5.3
2017-May-19 16:29N 39°13' W 076°32'0 0.5
2017-May-19 15:58N 39°14' W 076°32'1 1.9
2017-May-19 15:30N 39°13' W 076°31'3 5.3
2017-May-19 14:57N 39°15' W 076°34'3 0.1
2017-May-18 15:58N 39°17' W 076°37'2 2.2
2017-May-18 15:03N 39°16' W 076°34'0 1.5
2017-May-18 15:00N 39°16' W 076°34'0 0.3
2017-May-18 14:26N 39°16' W 076°35'0 0.0
2017-May-17 17:43N 39°16' W 076°34'3 4.0
2017-May-17 16:56N 39°14' W 076°31'0 0.2
2017-May-17 16:25N 39°14' W 076°31'2 1.6
2017-May-17 15:16N 39°15' W 076°33'1 3.5
2017-May-17 14:58N 39°16' W 076°34'  

Dump ship's entire track history